Sanford, California
Current Conditions -  °F | °C
As of 9:47 PM on Thursday 30 Oct 2014 (Local Time) from KCQT Reporting Station
Broken Clouds Broken Clouds  
Wind Chill: 66°   Ceiling: 1100
Heat Index: 66°   Visibility: 10mi
Dew Point: 61°   Wind: 0mph
Humidity: 84%   Direction: NA
Pressure: 29.96"   Gusts: NA
Location:  34.0664°N, 118.31°W
Report Text: KCQT 310447Z AUTO 00000KT 10SM BKN011 19/16 A2996 RMK AO2 SLP143 T01890161
Loading
Personal Weather Stations






























Interactive Weather Map
Tropical Storm Tracking
New forecast layout! Learn more

10-Day Weather Forecast

Advertisements
Track Severe Weather on mobile